Big Bear Station Historical Data
Daily Summary for July 3, 2017 Units:  English    Metric   Both
« Previous Day
Next Day »
Daily Weekly Monthly Yearly Custom
  High: Low: Average:
Temperature: 84.6 °F 43.5 °F 63.7 °F
Dew Point: 31.5 °F 9.3 °F 21.1 °F
Humidity: 56 % 9 % 22 %
Wind Speed: 8.9 mph 0.0 mph 2 mph
Wind Gust: -999.0 mph - -
Wind:- - SW
Pressure: 30.35 in 30.28 in -
Precipitation: 0.00 in    
Historical Graphs
 
 
Tabular Data for July 3, 2017
Time Temperature Dew Point Pressure Wind Wind Speed Wind Gust Humidity Rainfall Rate (Hourly)
00:06 52.5 °F 14.7 °F 30.30 in Calm   -999.0 mph 22 % 0 in
00:22 51.8 °F 14.1 °F 30.30 in SSE 1.7 mph -999.0 mph 22 % 0 in
00:37 50.9 °F 13.4 °F 30.30 in Calm   -999.0 mph 22 % 0 in
00:52 50.7 °F 11.0 °F 30.30 in Calm   -999.0 mph 20 % 0 in
01:07 50.2 °F 14.8 °F 30.29 in South 2.2 mph -999.0 mph 24 % 0 in
01:22 49.6 °F 13.3 °F 30.29 in Calm   -999.0 mph 23 % 0 in
01:38 49.3 °F 11.0 °F 30.29 in South 2.2 mph -999.0 mph 21 % 0 in
01:53 48.7 °F 10.5 °F 30.29 in Calm   -999.0 mph 21 % 0 in
02:09 48.6 °F 12.4 °F 30.29 in SSW 2.2 mph -999.0 mph 23 % 0 in
02:24 48.2 °F 13.1 °F 30.28 in Calm   -999.0 mph 24 % 0 in
02:39 48.0 °F 13.8 °F 30.28 in Calm   -999.0 mph 25 % 0 in
02:54 47.5 °F 11.5 °F 30.28 in SSE 1.7 mph -999.0 mph 23 % 0 in
03:09 47.3 °F 9.3 °F 30.28 in SE 2.2 mph -999.0 mph 21 % 0 in
03:25 46.8 °F 12.8 °F 30.28 in SSE 2.2 mph -999.0 mph 25 % 0 in
03:40 46.6 °F 19.7 °F 30.28 in SSE 2.2 mph -999.0 mph 34 % 0 in
03:55 46.0 °F 17.8 °F 30.28 in Calm   -999.0 mph 32 % 0 in
04:10 45.7 °F 22.1 °F 30.28 in Calm   -999.0 mph 39 % 0 in
04:25 45.1 °F 22.8 °F 30.28 in Calm   -999.0 mph 41 % 0 in
04:41 45.0 °F 23.3 °F 30.28 in South 1.7 mph -999.0 mph 42 % 0 in
04:56 44.8 °F 21.9 °F 30.28 in Calm   -999.0 mph 40 % 0 in
05:11 44.6 °F 27.1 °F 30.28 in Calm   -999.0 mph 50 % 0 in
05:26 44.6 °F 27.6 °F 30.28 in Calm   -999.0 mph 51 % 0 in
05:42 44.2 °F 26.2 °F 30.28 in Calm   -999.0 mph 49 % 0 in
05:57 43.9 °F 27.9 °F 30.29 in Calm   -999.0 mph 53 % 0 in
06:12 43.5 °F 26.6 °F 30.29 in SE 2.2 mph -999.0 mph 51 % 0 in
06:27 44.2 °F 21.4 °F 30.29 in SSE 2.7 mph -999.0 mph 40 % 0 in
06:42 46.4 °F 31.5 °F 30.30 in SSE 2.7 mph -999.0 mph 56 % 0 in
06:58 48.0 °F 23.6 °F 30.30 in SSE 1.7 mph -999.0 mph 38 % 0 in
07:13 50.0 °F 28.9 °F 30.30 in ESE 2.7 mph -999.0 mph 44 % 0 in
07:28 51.4 °F 29.1 °F 30.31 in SSE 2.2 mph -999.0 mph 42 % 0 in
07:43 53.4 °F 29.1 °F 30.31 in South 1.1 mph -999.0 mph 39 % 0 in
07:58 55.0 °F 29.2 °F 30.32 in Calm   -999.0 mph 37 % 0 in
08:14 56.8 °F 26.5 °F 30.32 in Calm   -999.0 mph 31 % 0 in
08:29 60.4 °F 17.9 °F 30.32 in Calm   -999.0 mph 19 % 0 in
08:44 61.9 °F 22.6 °F 30.32 in Calm   -999.0 mph 22 % 0 in
08:59 62.6 °F 18.5 °F 30.33 in SSW 2.2 mph -999.0 mph 18 % 0 in
09:14 63.1 °F 21.4 °F 30.33 in Calm   -999.0 mph 20 % 0 in
09:30 64.2 °F 19.8 °F 30.33 in NNE 3.2 mph -999.0 mph 18 % 0 in
09:45 65.3 °F 19.3 °F 30.33 in East 2.7 mph -999.0 mph 17 % 0 in
10:00 66.4 °F 20.2 °F 30.33 in NNW 4.7 mph -999.0 mph 17 % 0 in
10:15 67.6 °F 21.2 °F 30.34 in SSW 4.7 mph -999.0 mph 17 % 0 in
10:31 68.5 °F 20.5 °F 30.34 in East 1.7 mph -999.0 mph 16 % 0 in
10:46 69.8 °F 20.0 °F 30.34 in North 4.2 mph -999.0 mph 15 % 0 in
11:02 70.5 °F 20.6 °F 30.35 in NNE 3.7 mph -999.0 mph 15 % 0 in
11:17 72.1 °F 20.3 °F 30.35 in NE 4.7 mph -999.0 mph 14 % 0 in
11:33 73.6 °F 19.7 °F 30.35 in WNW 5.3 mph -999.0 mph 13 % 0 in
11:48 75.4 °F 19.2 °F 30.35 in NNW 4.2 mph -999.0 mph 12 % 0 in
12:03 77.0 °F 22.4 °F 30.35 in North 4.7 mph -999.0 mph 13 % 0 in
12:18 78.8 °F 23.8 °F 30.35 in NNE 5.8 mph -999.0 mph 13 % 0 in
12:33 77.9 °F 21.2 °F 30.35 in NNE 3.7 mph -999.0 mph 12 % 0 in
12:49 79.5 °F 22.4 °F 30.35 in WSW 1.7 mph -999.0 mph 12 % 0 in
13:04 80.1 °F 22.9 °F 30.35 in SW 2.7 mph -999.0 mph 12 % 0 in
13:19 80.4 °F 23.1 °F 30.35 in NW 4.7 mph -999.0 mph 12 % 0 in
13:34 81.5 °F 24.0 °F 30.35 in ENE 3.7 mph -999.0 mph 12 % 0 in
13:49 80.8 °F 23.4 °F 30.35 in NNW 8.3 mph -999.0 mph 12 % 0 in
14:05 82.0 °F 26.3 °F 30.35 in North 4.7 mph -999.0 mph 13 % 0 in
14:20 81.9 °F 24.3 °F 30.35 in NNW 1.7 mph -999.0 mph 12 % 0 in
14:35 82.6 °F 24.8 °F 30.35 in South 3.7 mph -999.0 mph 12 % 0 in
14:51 82.8 °F 20.7 °F 30.35 in West 8.9 mph -999.0 mph 10 % 0 in
15:06 81.7 °F 19.8 °F 30.35 in NNW 3.2 mph -999.0 mph 10 % 0 in
15:21 82.2 °F 24.5 °F 30.34 in SW 2.7 mph -999.0 mph 12 % 0 in
15:36 81.3 °F 17.1 °F 30.34 in NNW 4.7 mph -999.0 mph 9 % 0 in
15:51 81.5 °F 17.2 °F 30.34 in North 5.8 mph -999.0 mph 9 % 0 in
16:07 82.2 °F 17.7 °F 30.33 in SSW 1.7 mph -999.0 mph 9 % 0 in
16:22 82.0 °F 20.1 °F 30.33 in NNW 2.7 mph -999.0 mph 10 % 0 in
16:37 82.9 °F 18.3 °F 30.33 in West 2.2 mph -999.0 mph 9 % 0 in
16:52 83.8 °F 18.9 °F 30.32 in NNW 3.7 mph -999.0 mph 9 % 0 in
17:08 84.6 °F 24.3 °F 30.32 in WNW 5.8 mph -999.0 mph 11 % 0 in
17:23 84.6 °F 19.6 °F 30.32 in SW 2.2 mph -999.0 mph 9 % 0 in
17:38 82.6 °F 20.5 °F 30.31 in North 4.7 mph -999.0 mph 10 % 0 in
17:53 83.7 °F 27.6 °F 30.31 in NNW 5.3 mph -999.0 mph 13 % 0 in
18:08 81.9 °F 24.3 °F 30.31 in NNE 2.7 mph -999.0 mph 12 % 0 in
18:24 81.0 °F 23.6 °F 30.31 in NNW 3.2 mph -999.0 mph 12 % 0 in
18:39 81.5 °F 27.7 °F 30.31 in NNE 3.2 mph -999.0 mph 14 % 0 in
18:54 79.5 °F 26.1 °F 30.31 in NNW 3.7 mph -999.0 mph 14 % 0 in
19:09 77.9 °F 26.5 °F 30.31 in NW 4.2 mph -999.0 mph 15 % 0 in
19:24 74.5 °F 23.8 °F 30.31 in NW 2.7 mph -999.0 mph 15 % 0 in
19:40 70.9 °F 25.3 °F 30.32 in Calm   -999.0 mph 18 % 0 in
19:55 68.9 °F 23.6 °F 30.31 in Calm   -999.0 mph 18 % 0 in
20:10 66.4 °F 22.9 °F 30.31 in Calm   -999.0 mph 19 % 0 in
20:25 65.3 °F 16.4 °F 30.32 in Calm   -999.0 mph 15 % 0 in
20:40 64.4 °F 14.1 °F 30.32 in Calm   -999.0 mph 14 % 0 in
20:56 63.9 °F 13.7 °F 30.32 in Calm   -999.0 mph 14 % 0 in
21:11 62.2 °F 15.4 °F 30.32 in Calm   -999.0 mph 16 % 0 in
21:26 60.8 °F 15.7 °F 30.32 in Calm   -999.0 mph 17 % 0 in
21:41 59.4 °F 19.4 °F 30.32 in Calm   -999.0 mph 21 % 0 in
21:56 58.5 °F 17.5 °F 30.33 in Calm   -999.0 mph 20 % 0 in
22:12 57.7 °F 20.1 °F 30.33 in Calm   -999.0 mph 23 % 0 in
22:27 57.2 °F 26.0 °F 30.33 in Calm   -999.0 mph 30 % 0 in
22:42 56.7 °F 27.2 °F 30.33 in Calm   -999.0 mph 32 % 0 in
22:57 56.3 °F 23.6 °F 30.33 in Calm   -999.0 mph 28 % 0 in
23:13 55.8 °F 27.8 °F 30.33 in Calm   -999.0 mph 34 % 0 in
23:28 55.2 °F 28.7 °F 30.33 in Calm   -999.0 mph 36 % 0 in
23:43 54.7 °F 26.9 °F 30.33 in Calm   -999.0 mph 34 % 0 in
23:58 54.5 °F 20.3 °F 30.33 in Calm   -999.0 mph 26 % 0 in
Big Bear CA Weather
Compliments of Weather Underground - 1.5 mb